EZY76FD EGCC-EGHQ
Flight info
| Callsign | EZY76FD |
|---|---|
| Flight time | N/A |
| Altitude | 23000 |
| Route | ASMIM DCT NOKIN P17 ZESPE/N0355F220 N92 EXMOR |
| Aircraft | A320/M-SDE2E3FGHIJ1RWXYZ/LB1 |
Departure
| Time | N/A |
|---|---|
| Airport | Manchester Airport (EGCC) |
Arrival
| Time | 2026-04-25 11:15 |
|---|---|
| Airport | Cornwall Airport Newquay (EGHQ) |
| Time | Latitude | Longitude | Altitude | Speed | Heading |
|---|---|---|---|---|---|
| 2026-04-25 10:45 | 52.15170 | -2.79753 | 23224 ft | 359 kts | 183° |
| 2026-04-25 10:45 | 52.12677 | -2.79968 | 23223 ft | 359 kts | 184° |
| 2026-04-25 10:46 | 52.10179 | -2.80181 | 23224 ft | 360 kts | 184° |
| 2026-04-25 10:46 | 52.07679 | -2.80390 | 23223 ft | 360 kts | 184° |
| 2026-04-25 10:46 | 52.05177 | -2.80598 | 23220 ft | 360 kts | 184° |
| 2026-04-25 10:46 | 52.02674 | -2.80809 | 23218 ft | 361 kts | 184° |
| 2026-04-25 10:47 | 52.00168 | -2.81022 | 23214 ft | 361 kts | 184° |
| 2026-04-25 10:47 | 51.97656 | -2.81234 | 23213 ft | 361 kts | 184° |
| 2026-04-25 10:47 | 51.95146 | -2.81445 | 23211 ft | 362 kts | 184° |
| 2026-04-25 10:47 | 51.92632 | -2.81656 | 23211 ft | 362 kts | 184° |
| 2026-04-25 10:48 | 51.90112 | -2.81869 | 23211 ft | 362 kts | 184° |
| 2026-04-25 10:48 | 51.87596 | -2.82084 | 23206 ft | 362 kts | 184° |
| 2026-04-25 10:48 | 51.85076 | -2.82319 | 23205 ft | 362 kts | 186° |
| 2026-04-25 10:48 | 51.82570 | -2.82716 | 23203 ft | 362 kts | 188° |
| 2026-04-25 10:49 | 51.80073 | -2.83244 | 23198 ft | 362 kts | 189° |
| 2026-04-25 10:49 | 51.78423 | -2.83631 | 23200 ft | 362 kts | 190° |
| 2026-04-25 10:49 | 51.75929 | -2.84232 | 23201 ft | 362 kts | 190° |
| 2026-04-25 10:49 | 51.73436 | -2.84821 | 23197 ft | 362 kts | 190° |
| 2026-04-25 10:50 | 51.70127 | -2.85572 | 23201 ft | 362 kts | 190° |
| 2026-04-25 10:50 | 51.68442 | -2.85943 | 23199 ft | 362 kts | 190° |
| 2026-04-25 10:50 | 51.65131 | -2.86651 | 23202 ft | 362 kts | 190° |
| 2026-04-25 10:50 | 51.63441 | -2.87007 | 23203 ft | 362 kts | 190° |
| 2026-04-25 10:51 | 51.61000 | -2.87522 | 23205 ft | 362 kts | 190° |
| 2026-04-25 10:51 | 51.58504 | -2.88053 | 23207 ft | 362 kts | 191° |
| 2026-04-25 10:51 | 51.56075 | -2.89017 | 23212 ft | 358 kts | 203° |
| 2026-04-25 10:51 | 51.53839 | -2.90724 | 23208 ft | 354 kts | 214° |
| 2026-04-25 10:52 | 51.51863 | -2.93050 | 23214 ft | 352 kts | 221° |
| 2026-04-25 10:52 | 51.49948 | -2.95515 | 23206 ft | 353 kts | 221° |
| 2026-04-25 10:52 | 51.48029 | -2.97967 | 23206 ft | 353 kts | 220° |
| 2026-04-25 10:52 | 51.46104 | -3.00412 | 23208 ft | 353 kts | 220° |
| 2026-04-25 10:53 | 51.44181 | -3.02851 | 23208 ft | 353 kts | 220° |
| 2026-04-25 10:53 | 51.42256 | -3.05289 | 23212 ft | 353 kts | 220° |
| 2026-04-25 10:53 | 51.40322 | -3.07732 | 23207 ft | 353 kts | 220° |
| 2026-04-25 10:53 | 51.38394 | -3.10164 | 23211 ft | 353 kts | 220° |
| 2026-04-25 10:54 | 51.36463 | -3.12597 | 23211 ft | 353 kts | 220° |
| 2026-04-25 10:54 | 51.34534 | -3.15027 | 23216 ft | 353 kts | 220° |
| 2026-04-25 10:54 | 51.32603 | -3.17458 | 23212 ft | 353 kts | 220° |
| 2026-04-25 10:54 | 51.30672 | -3.19888 | 23213 ft | 353 kts | 220° |
| 2026-04-25 10:55 | 51.28745 | -3.22317 | 23210 ft | 353 kts | 220° |
| 2026-04-25 10:55 | 51.26818 | -3.24741 | 23216 ft | 353 kts | 220° |
| 2026-04-25 10:55 | 51.24887 | -3.27167 | 23209 ft | 353 kts | 220° |
| 2026-04-25 10:55 | 51.22952 | -3.29591 | 23207 ft | 353 kts | 220° |
| 2026-04-25 10:56 | 51.21018 | -3.32007 | 23202 ft | 354 kts | 220° |
| 2026-04-25 10:56 | 51.19088 | -3.34441 | 23209 ft | 353 kts | 223° |
| 2026-04-25 10:56 | 51.17415 | -3.37281 | 23202 ft | 351 kts | 236° |
| 2026-04-25 10:56 | 51.16155 | -3.40593 | 23203 ft | 350 kts | 243° |
| 2026-04-25 10:57 | 51.14979 | -3.43990 | 23204 ft | 351 kts | 242° |
| 2026-04-25 10:57 | 51.13786 | -3.47378 | 23202 ft | 351 kts | 242° |
| 2026-04-25 10:57 | 51.12582 | -3.50759 | 23194 ft | 351 kts | 242° |
| 2026-04-25 10:57 | 51.11370 | -3.54133 | 23196 ft | 351 kts | 241° |
| 2026-04-25 10:58 | 51.10152 | -3.57504 | 23153 ft | 350 kts | 241° |
| 2026-04-25 10:58 | 51.08949 | -3.60820 | 22880 ft | 342 kts | 241° |
| 2026-04-25 10:58 | 51.07768 | -3.64066 | 22555 ft | 336 kts | 241° |
| 2026-04-25 10:58 | 51.06607 | -3.67272 | 22146 ft | 333 kts | 241° |
| 2026-04-25 10:59 | 51.05459 | -3.70455 | 21720 ft | 331 kts | 241° |
| 2026-04-25 10:59 | 51.04315 | -3.73625 | 21305 ft | 329 kts | 241° |
| 2026-04-25 10:59 | 51.03177 | -3.76768 | 20893 ft | 328 kts | 240° |
| 2026-04-25 10:59 | 51.02040 | -3.79898 | 20473 ft | 326 kts | 241° |
| 2026-04-25 11:00 | 51.00907 | -3.83013 | 20063 ft | 325 kts | 240° |
| 2026-04-25 11:00 | 50.99778 | -3.86112 | 19670 ft | 324 kts | 240° |
| 2026-04-25 11:00 | 50.98651 | -3.89205 | 19264 ft | 323 kts | 240° |
| 2026-04-25 11:00 | 50.97526 | -3.92292 | 18856 ft | 323 kts | 240° |
| 2026-04-25 11:01 | 50.96402 | -3.95374 | 18450 ft | 323 kts | 240° |
| 2026-04-25 11:01 | 50.95277 | -3.98449 | 18011 ft | 321 kts | 240° |
| 2026-04-25 11:01 | 50.94158 | -4.01505 | 17616 ft | 320 kts | 239° |
| 2026-04-25 11:01 | 50.93044 | -4.04546 | 17230 ft | 318 kts | 239° |
| 2026-04-25 11:02 | 50.91933 | -4.07572 | 16843 ft | 317 kts | 239° |
| 2026-04-25 11:02 | 50.90825 | -4.10595 | 16454 ft | 317 kts | 239° |
| 2026-04-25 11:02 | 50.89721 | -4.13605 | 16077 ft | 316 kts | 239° |
| 2026-04-25 11:02 | 50.88617 | -4.16610 | 15708 ft | 315 kts | 238° |
| 2026-04-25 11:03 | 50.87514 | -4.19605 | 15326 ft | 314 kts | 238° |
| 2026-04-25 11:03 | 50.86410 | -4.22590 | 14953 ft | 314 kts | 237° |
| 2026-04-25 11:03 | 50.85305 | -4.25573 | 14575 ft | 314 kts | 238° |
| 2026-04-25 11:03 | 50.84197 | -4.28558 | 14192 ft | 315 kts | 237° |
| 2026-04-25 11:04 | 50.83086 | -4.31554 | 13796 ft | 316 kts | 237° |
| 2026-04-25 11:04 | 50.81979 | -4.34553 | 13395 ft | 316 kts | 236° |
| 2026-04-25 11:04 | 50.80873 | -4.37547 | 13008 ft | 315 kts | 237° |
| 2026-04-25 11:04 | 50.80139 | -4.39525 | 12753 ft | 314 kts | 237° |
| 2026-04-25 11:05 | 50.78661 | -4.43500 | 12226 ft | 313 kts | 237° |
| 2026-04-25 11:05 | 50.77575 | -4.46420 | 11840 ft | 312 kts | 236° |
| 2026-04-25 11:05 | 50.76462 | -4.49409 | 11436 ft | 311 kts | 236° |
| 2026-04-25 11:05 | 50.75366 | -4.52340 | 11033 ft | 310 kts | 236° |
| 2026-04-25 11:06 | 50.74268 | -4.55271 | 10627 ft | 310 kts | 236° |
| 2026-04-25 11:06 | 50.73169 | -4.58202 | 10217 ft | 310 kts | 236° |
| 2026-04-25 11:06 | 50.72095 | -4.61069 | 9988 ft | 302 kts | 236° |
| 2026-04-25 11:06 | 50.71040 | -4.63886 | 9712 ft | 296 kts | 236° |
| 2026-04-25 11:07 | 50.69994 | -4.66673 | 9335 ft | 294 kts | 236° |
| 2026-04-25 11:07 | 50.68956 | -4.69435 | 8981 ft | 292 kts | 236° |
| 2026-04-25 11:07 | 50.67911 | -4.72215 | 8544 ft | 290 kts | 236° |
| 2026-04-25 11:07 | 50.66903 | -4.74902 | 8139 ft | 287 kts | 236° |
| 2026-04-25 11:08 | 50.65887 | -4.77600 | 7748 ft | 285 kts | 236° |
| 2026-04-25 11:08 | 50.64876 | -4.80274 | 7359 ft | 283 kts | 236° |
| 2026-04-25 11:08 | 50.63858 | -4.82967 | 6969 ft | 281 kts | 236° |
| 2026-04-25 11:08 | 50.62877 | -4.85566 | 6591 ft | 279 kts | 236° |
| 2026-04-25 11:09 | 50.61890 | -4.88174 | 6180 ft | 277 kts | 236° |
| 2026-04-25 11:09 | 50.60905 | -4.90769 | 5739 ft | 276 kts | 235° |
| 2026-04-25 11:09 | 50.59921 | -4.93354 | 5322 ft | 274 kts | 235° |
| 2026-04-25 11:09 | 50.58946 | -4.95918 | 4808 ft | 274 kts | 236° |
| 2026-04-25 11:10 | 50.57972 | -4.98482 | 4365 ft | 272 kts | 235° |
| 2026-04-25 11:10 | 50.57316 | -5.00212 | 3963 ft | 275 kts | 236° |
| 2026-04-25 11:10 | 50.56007 | -5.03649 | 3338 ft | 275 kts | 235° |
| 2026-04-25 11:10 | 50.55061 | -5.06134 | 3126 ft | 253 kts | 235° |
| 2026-04-25 11:11 | 50.54199 | -5.08405 | 3004 ft | 231 kts | 234° |
| 2026-04-25 11:11 | 50.53412 | -5.10476 | 2907 ft | 212 kts | 234° |
| 2026-04-25 11:11 | 50.52684 | -5.12383 | 2800 ft | 194 kts | 231° |
| 2026-04-25 11:11 | 50.51783 | -5.13715 | 2689 ft | 164 kts | 200° |
| 2026-04-25 11:12 | 50.50771 | -5.14089 | 2558 ft | 139 kts | 173° |
| 2026-04-25 11:12 | 50.49889 | -5.13784 | 2318 ft | 126 kts | 152° |
| 2026-04-25 11:12 | 50.49198 | -5.12967 | 1992 ft | 124 kts | 123° |
| 2026-04-25 11:12 | 50.48752 | -5.11770 | 2008 ft | 129 kts | 124° |
| 2026-04-25 11:13 | 50.48261 | -5.10568 | 1933 ft | 132 kts | 122° |
| 2026-04-25 11:13 | 50.47772 | -5.09357 | 1677 ft | 131 kts | 122° |
| 2026-04-25 11:13 | 50.47315 | -5.08139 | 1368 ft | 129 kts | 121° |
| 2026-04-25 11:13 | 50.46854 | -5.06925 | 1154 ft | 130 kts | 121° |
| 2026-04-25 11:14 | 50.46402 | -5.05691 | 1009 ft | 132 kts | 120° |
| 2026-04-25 11:14 | 50.45929 | -5.04464 | 873 ft | 131 kts | 121° |
| 2026-04-25 11:14 | 50.45473 | -5.03226 | 631 ft | 131 kts | 124° |
| 2026-04-25 11:14 | 50.45005 | -5.01987 | 474 ft | 132 kts | 124° |
| 2026-04-25 11:15 | 50.44543 | -5.00766 | 324 ft | 123 kts | 124° |
| 2026-04-25 11:15 | 50.44194 | -4.99860 | 353 ft | 75 kts | 121° |
| 2026-04-25 11:15 | 50.44060 | -4.99520 | 362 ft | 14 kts | 148° |
| 2026-04-25 11:15 | 50.43987 | -4.99516 | 361 ft | 8 kts | 181° |
| 2026-04-25 11:16 | 50.43882 | -4.99516 | 366 ft | 9 kts | 182° |
| 2026-04-25 11:16 | 50.43872 | -4.99517 | 364 ft | 2 kts | 182° |
| 2026-04-25 11:16 | 50.43841 | -4.99526 | 364 ft | 5 kts | 224° |
| 2026-04-25 11:17 | 50.43884 | -4.99605 | 362 ft | 15 kts | 319° |
| 2026-04-25 11:17 | 50.43966 | -4.99777 | 359 ft | 25 kts | 300° |
| 2026-04-25 11:17 | 50.44063 | -5.00039 | 352 ft | 30 kts | 300° |
| 2026-04-25 11:17 | 50.44163 | -5.00267 | 349 ft | 20 kts | 311° |
| 2026-04-25 11:18 | 50.44234 | -5.00437 | 339 ft | 19 kts | 263° |
| 2026-04-25 11:18 | 50.44204 | -5.00509 | 337 ft | 5 kts | 187° |
| 2026-04-25 11:18 | 50.44180 | -5.00509 | 339 ft | 0 kts | 171° |